sensor_id;sensor_type;location;lat;lon;timestamp;temperature;humidity
12384;DHT22;6256;63.808;20.336;2023-12-20T00:01:24;2.30;99.90
12384;DHT22;6256;63.808;20.336;2023-12-20T00:03:49;2.30;99.90
12384;DHT22;6256;63.808;20.336;2023-12-20T00:06:15;2.30;99.90
12384;DHT22;6256;63.808;20.336;2023-12-20T00:08:41;2.30;99.90
12384;DHT22;6256;63.808;20.336;2023-12-20T00:11:06;2.30;99.90
12384;DHT22;6256;63.808;20.336;2023-12-20T00:13:32;2.30;99.90
12384;DHT22;6256;63.808;20.336;2023-12-20T00:15:58;2.30;99.90
12384;DHT22;6256;63.808;20.336;2023-12-20T00:18:24;2.30;99.90
12384;DHT22;6256;63.808;20.336;2023-12-20T00:20:49;2.20;99.90
12384;DHT22;6256;63.808;20.336;2023-12-20T00:23:15;2.20;99.90
12384;DHT22;6256;63.808;20.336;2023-12-20T00:25:41;2.20;99.90
12384;DHT22;6256;63.808;20.336;2023-12-20T00:28:06;2.20;99.90
12384;DHT22;6256;63.808;20.336;2023-12-20T00:30:32;2.20;99.90
12384;DHT22;6256;63.808;20.336;2023-12-20T00:32:58;2.30;99.90
12384;DHT22;6256;63.808;20.336;2023-12-20T00:35:23;2.20;99.90
12384;DHT22;6256;63.808;20.336;2023-12-20T00:37:49;2.20;99.90
12384;DHT22;6256;63.808;20.336;2023-12-20T00:40:15;2.10;99.90
12384;DHT22;6256;63.808;20.336;2023-12-20T00:42:41;2.20;99.90
12384;DHT22;6256;63.808;20.336;2023-12-20T00:45:07;2.20;99.90
12384;DHT22;6256;63.808;20.336;2023-12-20T00:47:33;2.10;99.90
12384;DHT22;6256;63.808;20.336;2023-12-20T00:49:58;2.10;99.90
12384;DHT22;6256;63.808;20.336;2023-12-20T00:52:24;2.10;99.90
12384;DHT22;6256;63.808;20.336;2023-12-20T00:54:50;2.20;99.90
12384;DHT22;6256;63.808;20.336;2023-12-20T00:57:18;2.20;99.90
12384;DHT22;6256;63.808;20.336;2023-12-20T00:59:44;2.20;99.90
12384;DHT22;6256;63.808;20.336;2023-12-20T01:02:10;2.20;99.90
12384;DHT22;6256;63.808;20.336;2023-12-20T01:04:35;2.10;99.90
12384;DHT22;6256;63.808;20.336;2023-12-20T01:07:01;2.10;99.90
12384;DHT22;6256;63.808;20.336;2023-12-20T01:09:27;2.10;99.90
12384;DHT22;6256;63.808;20.336;2023-12-20T01:11:53;2.10;99.90
12384;DHT22;6256;63.808;20.336;2023-12-20T01:14:19;2.10;99.90
12384;DHT22;6256;63.808;20.336;2023-12-20T01:16:45;2.10;99.90
12384;DHT22;6256;63.808;20.336;2023-12-20T01:19:11;2.00;99.90
12384;DHT22;6256;63.808;20.336;2023-12-20T01:21:36;2.00;99.90
12384;DHT22;6256;63.808;20.336;2023-12-20T01:24:02;2.00;99.90
12384;DHT22;6256;63.808;20.336;2023-12-20T01:26:28;2.10;99.90
12384;DHT22;6256;63.808;20.336;2023-12-20T01:28:53;2.00;99.90
12384;DHT22;6256;63.808;20.336;2023-12-20T01:31:19;2.10;99.90
12384;DHT22;6256;63.808;20.336;2023-12-20T01:33:45;2.10;99.90
12384;DHT22;6256;63.808;20.336;2023-12-20T01:36:10;2.10;99.90
12384;DHT22;6256;63.808;20.336;2023-12-20T01:38:37;2.10;99.90
12384;DHT22;6256;63.808;20.336;2023-12-20T01:41:05;2.10;99.90
12384;DHT22;6256;63.808;20.336;2023-12-20T01:43:30;2.10;99.90
12384;DHT22;6256;63.808;20.336;2023-12-20T01:45:57;2.10;99.90
12384;DHT22;6256;63.808;20.336;2023-12-20T01:48:24;2.10;99.90
12384;DHT22;6256;63.808;20.336;2023-12-20T01:50:51;2.10;99.90
12384;DHT22;6256;63.808;20.336;2023-12-20T01:53:18;2.00;99.90
12384;DHT22;6256;63.808;20.336;2023-12-20T01:55:44;2.00;99.90
12384;DHT22;6256;63.808;20.336;2023-12-20T01:58:11;2.00;99.90
12384;DHT22;6256;63.808;20.336;2023-12-20T02:00:38;2.00;99.90
12384;DHT22;6256;63.808;20.336;2023-12-20T02:03:04;2.00;99.90
12384;DHT22;6256;63.808;20.336;2023-12-20T02:07:57;2.00;99.90
12384;DHT22;6256;63.808;20.336;2023-12-20T02:10:23;1.90;99.90
12384;DHT22;6256;63.808;20.336;2023-12-20T02:12:49;1.90;99.90
12384;DHT22;6256;63.808;20.336;2023-12-20T02:15:15;1.90;99.90
12384;DHT22;6256;63.808;20.336;2023-12-20T02:17:41;1.90;99.90
12384;DHT22;6256;63.808;20.336;2023-12-20T02:20:10;1.90;99.90
12384;DHT22;6256;63.808;20.336;2023-12-20T02:22:35;1.90;99.90
12384;DHT22;6256;63.808;20.336;2023-12-20T02:25:01;1.90;99.90
12384;DHT22;6256;63.808;20.336;2023-12-20T02:27:28;1.90;99.90
12384;DHT22;6256;63.808;20.336;2023-12-20T02:29:54;1.80;99.90
12384;DHT22;6256;63.808;20.336;2023-12-20T02:32:21;1.80;99.90
12384;DHT22;6256;63.808;20.336;2023-12-20T02:34:48;1.80;99.90
12384;DHT22;6256;63.808;20.336;2023-12-20T02:37:14;1.80;99.90
12384;DHT22;6256;63.808;20.336;2023-12-20T02:39:40;1.80;99.90
12384;DHT22;6256;63.808;20.336;2023-12-20T02:42:06;1.80;99.90
12384;DHT22;6256;63.808;20.336;2023-12-20T02:44:31;1.80;99.90
12384;DHT22;6256;63.808;20.336;2023-12-20T02:46:57;1.70;99.90
12384;DHT22;6256;63.808;20.336;2023-12-20T02:49:23;1.80;99.90
12384;DHT22;6256;63.808;20.336;2023-12-20T02:51:48;1.70;99.90
12384;DHT22;6256;63.808;20.336;2023-12-20T02:54:14;1.70;99.90
12384;DHT22;6256;63.808;20.336;2023-12-20T02:56:40;1.70;99.90
12384;DHT22;6256;63.808;20.336;2023-12-20T02:59:06;1.70;99.90
12384;DHT22;6256;63.808;20.336;2023-12-20T03:01:33;1.60;99.90
12384;DHT22;6256;63.808;20.336;2023-12-20T03:03:59;1.60;99.90
12384;DHT22;6256;63.808;20.336;2023-12-20T03:06:25;1.60;99.90
12384;DHT22;6256;63.808;20.336;2023-12-20T03:08:51;1.60;99.90
12384;DHT22;6256;63.808;20.336;2023-12-20T03:11:17;1.50;99.90
12384;DHT22;6256;63.808;20.336;2023-12-20T03:13:43;1.50;99.90
12384;DHT22;6256;63.808;20.336;2023-12-20T03:16:12;1.60;99.90
12384;DHT22;6256;63.808;20.336;2023-12-20T03:18:38;1.50;99.90
12384;DHT22;6256;63.808;20.336;2023-12-20T03:21:05;1.50;99.90
12384;DHT22;6256;63.808;20.336;2023-12-20T03:23:31;1.50;99.90
12384;DHT22;6256;63.808;20.336;2023-12-20T03:25:59;1.50;99.90
12384;DHT22;6256;63.808;20.336;2023-12-20T03:28:28;1.50;99.90
12384;DHT22;6256;63.808;20.336;2023-12-20T03:30:53;1.50;99.90
12384;DHT22;6256;63.808;20.336;2023-12-20T03:33:19;1.50;99.90
12384;DHT22;6256;63.808;20.336;2023-12-20T03:35:45;1.50;99.90
12384;DHT22;6256;63.808;20.336;2023-12-20T03:38:11;1.50;99.90
12384;DHT22;6256;63.808;20.336;2023-12-20T03:40:36;1.40;99.90
12384;DHT22;6256;63.808;20.336;2023-12-20T03:43:02;1.30;99.90
12384;DHT22;6256;63.808;20.336;2023-12-20T03:45:28;1.40;99.90
12384;DHT22;6256;63.808;20.336;2023-12-20T03:47:55;1.40;99.90
12384;DHT22;6256;63.808;20.336;2023-12-20T03:52:48;1.30;99.90
12384;DHT22;6256;63.808;20.336;2023-12-20T03:55:14;1.30;99.90
12384;DHT22;6256;63.808;20.336;2023-12-20T03:57:40;1.20;99.90
12384;DHT22;6256;63.808;20.336;2023-12-20T04:00:07;1.20;99.90
12384;DHT22;6256;63.808;20.336;2023-12-20T04:02:45;1.10;99.90
12384;DHT22;6256;63.808;20.336;2023-12-20T04:05:11;1.10;99.90
12384;DHT22;6256;63.808;20.336;2023-12-20T04:07:37;1.00;99.90
12384;DHT22;6256;63.808;20.336;2023-12-20T04:10:04;0.90;99.90
12384;DHT22;6256;63.808;20.336;2023-12-20T04:12:30;0.90;99.90
12384;DHT22;6256;63.808;20.336;2023-12-20T04:14:56;0.90;99.90
12384;DHT22;6256;63.808;20.336;2023-12-20T04:17:22;0.90;99.90
12384;DHT22;6256;63.808;20.336;2023-12-20T04:19:51;0.90;99.90
12384;DHT22;6256;63.808;20.336;2023-12-20T04:22:22;0.90;99.90
12384;DHT22;6256;63.808;20.336;2023-12-20T04:24:48;0.80;99.90
12384;DHT22;6256;63.808;20.336;2023-12-20T04:27:13;0.80;99.90
12384;DHT22;6256;63.808;20.336;2023-12-20T04:29:39;0.70;99.90
12384;DHT22;6256;63.808;20.336;2023-12-20T04:32:05;0.70;99.90
12384;DHT22;6256;63.808;20.336;2023-12-20T04:34:31;0.60;99.90
12384;DHT22;6256;63.808;20.336;2023-12-20T04:36:56;0.50;99.90
12384;DHT22;6256;63.808;20.336;2023-12-20T04:39:22;0.50;99.90
12384;DHT22;6256;63.808;20.336;2023-12-20T04:41:48;0.40;99.90
12384;DHT22;6256;63.808;20.336;2023-12-20T04:44:13;0.40;99.90
12384;DHT22;6256;63.808;20.336;2023-12-20T04:46:39;0.30;99.90
12384;DHT22;6256;63.808;20.336;2023-12-20T04:49:05;0.30;99.90
12384;DHT22;6256;63.808;20.336;2023-12-20T04:51:33;0.30;99.90
12384;DHT22;6256;63.808;20.336;2023-12-20T04:54:00;0.30;99.90
12384;DHT22;6256;63.808;20.336;2023-12-20T04:56:25;0.30;99.90
12384;DHT22;6256;63.808;20.336;2023-12-20T04:58:51;0.20;99.90
12384;DHT22;6256;63.808;20.336;2023-12-20T05:01:17;0.20;99.90
12384;DHT22;6256;63.808;20.336;2023-12-20T05:03:42;0.10;99.90
12384;DHT22;6256;63.808;20.336;2023-12-20T05:06:09;0.10;99.90
12384;DHT22;6256;63.808;20.336;2023-12-20T05:08:34;0.00;99.90
12384;DHT22;6256;63.808;20.336;2023-12-20T05:11:00;0.00;99.90
12384;DHT22;6256;63.808;20.336;2023-12-20T05:13:26;-0.10;99.90
12384;DHT22;6256;63.808;20.336;2023-12-20T05:15:51;-0.10;99.90
12384;DHT22;6256;63.808;20.336;2023-12-20T05:18:17;-0.10;99.90
12384;DHT22;6256;63.808;20.336;2023-12-20T05:20:43;-0.10;99.90
12384;DHT22;6256;63.808;20.336;2023-12-20T05:23:08;-0.20;99.90
12384;DHT22;6256;63.808;20.336;2023-12-20T05:25:34;-0.20;99.90
12384;DHT22;6256;63.808;20.336;2023-12-20T05:28:00;-0.20;99.90
12384;DHT22;6256;63.808;20.336;2023-12-20T05:30:25;-0.20;99.90
12384;DHT22;6256;63.808;20.336;2023-12-20T05:32:52;-0.30;99.90
12384;DHT22;6256;63.808;20.336;2023-12-20T05:35:17;-0.40;99.90
12384;DHT22;6256;63.808;20.336;2023-12-20T05:37:44;-0.30;99.90
12384;DHT22;6256;63.808;20.336;2023-12-20T05:40:10;-0.30;99.90
12384;DHT22;6256;63.808;20.336;2023-12-20T05:42:36;-0.40;99.90
12384;DHT22;6256;63.808;20.336;2023-12-20T05:45:03;-0.40;99.90
12384;DHT22;6256;63.808;20.336;2023-12-20T05:49:55;-0.50;99.90
12384;DHT22;6256;63.808;20.336;2023-12-20T05:52:21;-0.50;99.90
12384;DHT22;6256;63.808;20.336;2023-12-20T05:54:47;-0.50;99.90
12384;DHT22;6256;63.808;20.336;2023-12-20T05:57:13;-0.50;99.90
12384;DHT22;6256;63.808;20.336;2023-12-20T05:59:38;-0.50;99.90
12384;DHT22;6256;63.808;20.336;2023-12-20T06:02:05;-0.50;99.90
12384;DHT22;6256;63.808;20.336;2023-12-20T06:04:31;-0.50;99.90
12384;DHT22;6256;63.808;20.336;2023-12-20T06:06:56;-0.60;99.90
12384;DHT22;6256;63.808;20.336;2023-12-20T06:09:22;-0.60;99.90
12384;DHT22;6256;63.808;20.336;2023-12-20T06:11:48;-0.60;99.90
12384;DHT22;6256;63.808;20.336;2023-12-20T06:14:13;-0.70;99.90
12384;DHT22;6256;63.808;20.336;2023-12-20T06:16:39;-0.70;99.90
12384;DHT22;6256;63.808;20.336;2023-12-20T06:19:05;-0.70;99.90
12384;DHT22;6256;63.808;20.336;2023-12-20T06:21:30;-0.70;99.90
12384;DHT22;6256;63.808;20.336;2023-12-20T06:23:56;-0.70;99.90
12384;DHT22;6256;63.808;20.336;2023-12-20T06:26:22;-0.80;99.90
12384;DHT22;6256;63.808;20.336;2023-12-20T06:28:47;-0.80;99.90
12384;DHT22;6256;63.808;20.336;2023-12-20T06:31:13;-0.90;99.90
12384;DHT22;6256;63.808;20.336;2023-12-20T06:33:39;-0.90;99.90
12384;DHT22;6256;63.808;20.336;2023-12-20T06:36:06;-0.90;99.90
12384;DHT22;6256;63.808;20.336;2023-12-20T06:38:32;-0.90;99.90
12384;DHT22;6256;63.808;20.336;2023-12-20T06:40:58;-1.00;99.90
12384;DHT22;6256;63.808;20.336;2023-12-20T06:43:24;-1.00;99.90
12384;DHT22;6256;63.808;20.336;2023-12-20T06:45:50;-1.00;99.90
12384;DHT22;6256;63.808;20.336;2023-12-20T06:48:16;-1.00;99.90
12384;DHT22;6256;63.808;20.336;2023-12-20T06:50:42;-1.10;99.90
12384;DHT22;6256;63.808;20.336;2023-12-20T06:53:08;-1.10;99.90
12384;DHT22;6256;63.808;20.336;2023-12-20T06:55:35;-1.10;99.90
12384;DHT22;6256;63.808;20.336;2023-12-20T06:58:02;-1.20;99.90
12384;DHT22;6256;63.808;20.336;2023-12-20T07:00:28;-1.20;99.90
12384;DHT22;6256;63.808;20.336;2023-12-20T07:02:54;-1.20;99.90
12384;DHT22;6256;63.808;20.336;2023-12-20T07:05:20;-1.20;99.90
12384;DHT22;6256;63.808;20.336;2023-12-20T07:07:46;-1.20;99.90
12384;DHT22;6256;63.808;20.336;2023-12-20T07:10:13;-1.30;99.90
12384;DHT22;6256;63.808;20.336;2023-12-20T07:12:38;-1.30;99.90
12384;DHT22;6256;63.808;20.336;2023-12-20T07:15:04;-1.40;99.90
12384;DHT22;6256;63.808;20.336;2023-12-20T07:17:33;-1.40;99.90
12384;DHT22;6256;63.808;20.336;2023-12-20T07:19:59;-1.40;99.90
12384;DHT22;6256;63.808;20.336;2023-12-20T07:22:29;-1.50;99.90
12384;DHT22;6256;63.808;20.336;2023-12-20T07:27:23;-1.50;99.90
12384;DHT22;6256;63.808;20.336;2023-12-20T07:29:48;-1.50;99.90
12384;DHT22;6256;63.808;20.336;2023-12-20T07:32:14;-1.50;99.90
12384;DHT22;6256;63.808;20.336;2023-12-20T07:34:39;-1.60;99.90
12384;DHT22;6256;63.808;20.336;2023-12-20T07:37:05;-1.50;99.90
12384;DHT22;6256;63.808;20.336;2023-12-20T07:39:31;-1.60;99.90
12384;DHT22;6256;63.808;20.336;2023-12-20T07:41:56;-1.60;99.90
12384;DHT22;6256;63.808;20.336;2023-12-20T07:44:22;-1.60;99.90
12384;DHT22;6256;63.808;20.336;2023-12-20T07:46:48;-1.70;99.90
12384;DHT22;6256;63.808;20.336;2023-12-20T07:49:14;-1.60;99.90
12384;DHT22;6256;63.808;20.336;2023-12-20T07:51:39;-1.60;99.90
12384;DHT22;6256;63.808;20.336;2023-12-20T07:54:05;-1.70;99.90
12384;DHT22;6256;63.808;20.336;2023-12-20T07:56:31;-1.70;99.90
12384;DHT22;6256;63.808;20.336;2023-12-20T07:58:56;-1.80;99.90
12384;DHT22;6256;63.808;20.336;2023-12-20T08:01:22;-1.80;99.90
12384;DHT22;6256;63.808;20.336;2023-12-20T08:03:49;-1.80;99.90
12384;DHT22;6256;63.808;20.336;2023-12-20T08:06:15;-1.80;99.90
12384;DHT22;6256;63.808;20.336;2023-12-20T08:08:42;-1.80;99.90
12384;DHT22;6256;63.808;20.336;2023-12-20T08:11:08;-1.90;99.90
12384;DHT22;6256;63.808;20.336;2023-12-20T08:13:33;-1.90;99.90
12384;DHT22;6256;63.808;20.336;2023-12-20T08:15:59;-1.90;99.90
12384;DHT22;6256;63.808;20.336;2023-12-20T08:18:25;-1.90;99.90
12384;DHT22;6256;63.808;20.336;2023-12-20T08:20:50;-1.90;99.90
12384;DHT22;6256;63.808;20.336;2023-12-20T08:23:19;-1.90;99.90
12384;DHT22;6256;63.808;20.336;2023-12-20T08:25:46;-2.00;99.90
12384;DHT22;6256;63.808;20.336;2023-12-20T08:28:12;-2.00;99.90
12384;DHT22;6256;63.808;20.336;2023-12-20T08:30:38;-1.90;99.90
12384;DHT22;6256;63.808;20.336;2023-12-20T08:33:04;-1.90;99.90
12384;DHT22;6256;63.808;20.336;2023-12-20T08:35:30;-2.00;99.90
12384;DHT22;6256;63.808;20.336;2023-12-20T08:37:56;-1.90;99.90
12384;DHT22;6256;63.808;20.336;2023-12-20T08:40:21;-1.90;99.90
12384;DHT22;6256;63.808;20.336;2023-12-20T08:42:47;-2.00;99.90
12384;DHT22;6256;63.808;20.336;2023-12-20T08:45:13;-1.90;99.90
12384;DHT22;6256;63.808;20.336;2023-12-20T08:47:42;-2.00;99.90
12384;DHT22;6256;63.808;20.336;2023-12-20T08:50:09;-2.00;99.90
12384;DHT22;6256;63.808;20.336;2023-12-20T08:52:35;-2.00;99.90
12384;DHT22;6256;63.808;20.336;2023-12-20T08:55:01;-2.00;99.90
12384;DHT22;6256;63.808;20.336;2023-12-20T08:57:27;-2.00;99.90
12384;DHT22;6256;63.808;20.336;2023-12-20T08:59:53;-2.00;99.90
12384;DHT22;6256;63.808;20.336;2023-12-20T09:02:19;-2.00;99.90
12384;DHT22;6256;63.808;20.336;2023-12-20T09:04:44;-2.00;99.90
12384;DHT22;6256;63.808;20.336;2023-12-20T09:07:23;-2.00;99.90
12384;DHT22;6256;63.808;20.336;2023-12-20T09:09:48;-2.00;99.90
12384;DHT22;6256;63.808;20.336;2023-12-20T09:12:14;-2.10;99.90
12384;DHT22;6256;63.808;20.336;2023-12-20T09:14:40;-2.10;99.90
12384;DHT22;6256;63.808;20.336;2023-12-20T09:17:06;-2.10;99.90
12384;DHT22;6256;63.808;20.336;2023-12-20T09:19:34;-2.10;99.90
12384;DHT22;6256;63.808;20.336;2023-12-20T09:22:00;-2.00;99.90
12384;DHT22;6256;63.808;20.336;2023-12-20T09:24:26;-2.00;99.90
12384;DHT22;6256;63.808;20.336;2023-12-20T09:26:52;-2.10;99.90
12384;DHT22;6256;63.808;20.336;2023-12-20T09:29:17;-2.10;99.90
12384;DHT22;6256;63.808;20.336;2023-12-20T09:31:44;-2.10;99.90
12384;DHT22;6256;63.808;20.336;2023-12-20T09:34:13;-2.10;99.90
12384;DHT22;6256;63.808;20.336;2023-12-20T09:36:38;-2.10;99.90
12384;DHT22;6256;63.808;20.336;2023-12-20T09:39:08;-2.10;99.90
12384;DHT22;6256;63.808;20.336;2023-12-20T09:41:37;-2.10;99.90
12384;DHT22;6256;63.808;20.336;2023-12-20T09:44:08;-2.10;99.90
12384;DHT22;6256;63.808;20.336;2023-12-20T09:46:43;-2.10;99.90
12384;DHT22;6256;63.808;20.336;2023-12-20T09:49:09;-2.20;99.90
12384;DHT22;6256;63.808;20.336;2023-12-20T09:51:36;-2.20;99.90
12384;DHT22;6256;63.808;20.336;2023-12-20T09:54:03;-2.20;99.90
12384;DHT22;6256;63.808;20.336;2023-12-20T09:56:30;-2.20;99.90
12384;DHT22;6256;63.808;20.336;2023-12-20T09:58:56;-2.20;99.90
12384;DHT22;6256;63.808;20.336;2023-12-20T10:01:23;-2.20;99.90
12384;DHT22;6256;63.808;20.336;2023-12-20T10:03:51;-2.20;99.90
12384;DHT22;6256;63.808;20.336;2023-12-20T10:06:19;-2.20;99.90
12384;DHT22;6256;63.808;20.336;2023-12-20T10:08:45;-2.30;99.90
12384;DHT22;6256;63.808;20.336;2023-12-20T10:11:11;-2.20;99.90
12384;DHT22;6256;63.808;20.336;2023-12-20T10:13:41;-2.20;99.90
12384;DHT22;6256;63.808;20.336;2023-12-20T10:16:07;-2.20;99.90
12384;DHT22;6256;63.808;20.336;2023-12-20T10:18:33;-2.20;99.90
12384;DHT22;6256;63.808;20.336;2023-12-20T10:21:00;-2.20;99.90
12384;DHT22;6256;63.808;20.336;2023-12-20T10:23:25;-2.30;99.90
12384;DHT22;6256;63.808;20.336;2023-12-20T10:25:58;-2.40;99.90
12384;DHT22;6256;63.808;20.336;2023-12-20T10:28:24;-2.40;99.90
12384;DHT22;6256;63.808;20.336;2023-12-20T10:30:54;-2.50;99.90
12384;DHT22;6256;63.808;20.336;2023-12-20T10:33:26;-2.50;99.90
12384;DHT22;6256;63.808;20.336;2023-12-20T10:35:52;-2.40;99.90
12384;DHT22;6256;63.808;20.336;2023-12-20T10:38:19;-2.40;99.90
12384;DHT22;6256;63.808;20.336;2023-12-20T10:40:45;-2.40;99.90
12384;DHT22;6256;63.808;20.336;2023-12-20T10:43:11;-2.40;99.90
12384;DHT22;6256;63.808;20.336;2023-12-20T10:45:38;-2.50;99.90
12384;DHT22;6256;63.808;20.336;2023-12-20T10:48:04;-2.50;99.90
12384;DHT22;6256;63.808;20.336;2023-12-20T10:50:30;-2.50;99.90
12384;DHT22;6256;63.808;20.336;2023-12-20T10:52:57;-2.60;99.90
12384;DHT22;6256;63.808;20.336;2023-12-20T10:55:23;-2.60;99.90
12384;DHT22;6256;63.808;20.336;2023-12-20T10:57:51;-2.60;99.90
12384;DHT22;6256;63.808;20.336;2023-12-20T11:00:18;-2.60;99.90
12384;DHT22;6256;63.808;20.336;2023-12-20T11:02:44;-2.60;99.90
12384;DHT22;6256;63.808;20.336;2023-12-20T11:05:18;-2.70;99.90
12384;DHT22;6256;63.808;20.336;2023-12-20T11:08:03;-2.70;99.90
12384;DHT22;6256;63.808;20.336;2023-12-20T11:13:17;-2.80;99.90
12384;DHT22;6256;63.808;20.336;2023-12-20T11:15:45;-2.80;99.90
12384;DHT22;6256;63.808;20.336;2023-12-20T11:18:11;-2.80;99.90
12384;DHT22;6256;63.808;20.336;2023-12-20T11:20:41;-2.80;99.90
12384;DHT22;6256;63.808;20.336;2023-12-20T11:23:08;-2.80;99.90
12384;DHT22;6256;63.808;20.336;2023-12-20T11:25:52;-2.90;99.90
12384;DHT22;6256;63.808;20.336;2023-12-20T11:28:21;-2.90;99.90
12384;DHT22;6256;63.808;20.336;2023-12-20T11:33:14;-2.90;99.90
12384;DHT22;6256;63.808;20.336;2023-12-20T11:35:41;-2.80;99.90
12384;DHT22;6256;63.808;20.336;2023-12-20T11:38:10;-2.80;99.90
12384;DHT22;6256;63.808;20.336;2023-12-20T11:40:36;-2.80;99.90
12384;DHT22;6256;63.808;20.336;2023-12-20T11:43:03;-2.80;99.90
12384;DHT22;6256;63.808;20.336;2023-12-20T11:45:35;-2.90;99.90
12384;DHT22;6256;63.808;20.336;2023-12-20T11:48:02;-2.90;99.90
12384;DHT22;6256;63.808;20.336;2023-12-20T11:50:28;-2.90;99.90
12384;DHT22;6256;63.808;20.336;2023-12-20T11:52:55;-3.00;99.90
12384;DHT22;6256;63.808;20.336;2023-12-20T11:55:24;-3.00;99.90
12384;DHT22;6256;63.808;20.336;2023-12-20T11:57:51;-3.00;99.90
12384;DHT22;6256;63.808;20.336;2023-12-20T12:00:17;-3.00;99.90
12384;DHT22;6256;63.808;20.336;2023-12-20T12:02:45;-3.00;99.90
12384;DHT22;6256;63.808;20.336;2023-12-20T12:05:20;-3.00;99.90
12384;DHT22;6256;63.808;20.336;2023-12-20T12:07:48;-3.00;99.90
12384;DHT22;6256;63.808;20.336;2023-12-20T12:10:14;-3.00;99.90
12384;DHT22;6256;63.808;20.336;2023-12-20T12:12:39;-3.10;99.90
12384;DHT22;6256;63.808;20.336;2023-12-20T12:15:06;-3.10;99.90
12384;DHT22;6256;63.808;20.336;2023-12-20T12:17:31;-3.10;99.90
12384;DHT22;6256;63.808;20.336;2023-12-20T12:20:04;-3.10;99.90
12384;DHT22;6256;63.808;20.336;2023-12-20T12:22:30;-3.10;99.90
12384;DHT22;6256;63.808;20.336;2023-12-20T12:24:59;-3.10;99.90
12384;DHT22;6256;63.808;20.336;2023-12-20T12:27:25;-3.20;99.90
12384;DHT22;6256;63.808;20.336;2023-12-20T12:30:02;-3.20;99.90
12384;DHT22;6256;63.808;20.336;2023-12-20T12:32:29;-3.20;99.90
12384;DHT22;6256;63.808;20.336;2023-12-20T12:34:55;-3.30;99.90
12384;DHT22;6256;63.808;20.336;2023-12-20T12:37:22;-3.30;99.90
12384;DHT22;6256;63.808;20.336;2023-12-20T12:39:49;-3.50;99.90
12384;DHT22;6256;63.808;20.336;2023-12-20T12:42:15;-3.50;99.90
12384;DHT22;6256;63.808;20.336;2023-12-20T12:44:40;-3.60;99.90
12384;DHT22;6256;63.808;20.336;2023-12-20T12:47:06;-3.70;99.90
12384;DHT22;6256;63.808;20.336;2023-12-20T12:49:33;-3.80;99.90
12384;DHT22;6256;63.808;20.336;2023-12-20T12:51:59;-3.80;99.90
12384;DHT22;6256;63.808;20.336;2023-12-20T12:54:25;-3.90;99.90
12384;DHT22;6256;63.808;20.336;2023-12-20T12:56:51;-3.80;99.90
12384;DHT22;6256;63.808;20.336;2023-12-20T12:59:18;-3.90;99.90
12384;DHT22;6256;63.808;20.336;2023-12-20T13:01:44;-4.00;99.90
12384;DHT22;6256;63.808;20.336;2023-12-20T13:04:09;-3.90;99.90
12384;DHT22;6256;63.808;20.336;2023-12-20T13:06:38;-4.10;99.90
12384;DHT22;6256;63.808;20.336;2023-12-20T13:09:04;-4.10;99.90
12384;DHT22;6256;63.808;20.336;2023-12-20T13:11:30;-4.10;99.90
12384;DHT22;6256;63.808;20.336;2023-12-20T13:13:57;-4.10;99.90
12384;DHT22;6256;63.808;20.336;2023-12-20T13:16:26;-4.10;99.90
12384;DHT22;6256;63.808;20.336;2023-12-20T13:18:52;-4.20;99.90
12384;DHT22;6256;63.808;20.336;2023-12-20T13:21:17;-4.30;99.90
12384;DHT22;6256;63.808;20.336;2023-12-20T13:23:43;-4.40;99.90
12384;DHT22;6256;63.808;20.336;2023-12-20T13:26:09;-4.30;99.90
12384;DHT22;6256;63.808;20.336;2023-12-20T13:28:34;-4.40;99.90
12384;DHT22;6256;63.808;20.336;2023-12-20T13:31:00;-4.30;99.90
12384;DHT22;6256;63.808;20.336;2023-12-20T13:33:26;-4.40;99.90
12384;DHT22;6256;63.808;20.336;2023-12-20T13:35:51;-4.50;99.90
12384;DHT22;6256;63.808;20.336;2023-12-20T13:38:17;-4.40;99.90
12384;DHT22;6256;63.808;20.336;2023-12-20T13:40:43;-4.60;99.90
12384;DHT22;6256;63.808;20.336;2023-12-20T13:43:12;-4.60;99.90
12384;DHT22;6256;63.808;20.336;2023-12-20T13:45:42;-4.60;99.90
12384;DHT22;6256;63.808;20.336;2023-12-20T13:48:07;-4.70;99.90
12384;DHT22;6256;63.808;20.336;2023-12-20T13:50:33;-4.80;99.90
12384;DHT22;6256;63.808;20.336;2023-12-20T13:52:59;-4.80;99.90
12384;DHT22;6256;63.808;20.336;2023-12-20T13:55:26;-4.80;99.90
12384;DHT22;6256;63.808;20.336;2023-12-20T13:57:52;-4.90;99.90
12384;DHT22;6256;63.808;20.336;2023-12-20T14:00:18;-4.90;99.90
12384;DHT22;6256;63.808;20.336;2023-12-20T14:02:44;-4.90;99.90
12384;DHT22;6256;63.808;20.336;2023-12-20T14:05:11;-5.00;99.90
12384;DHT22;6256;63.808;20.336;2023-12-20T14:07:37;-5.10;99.90
12384;DHT22;6256;63.808;20.336;2023-12-20T14:10:03;-5.20;99.90
12384;DHT22;6256;63.808;20.336;2023-12-20T14:12:29;-5.20;99.90
12384;DHT22;6256;63.808;20.336;2023-12-20T14:14:55;-5.30;99.90
12384;DHT22;6256;63.808;20.336;2023-12-20T14:17:21;-5.40;99.90
12384;DHT22;6256;63.808;20.336;2023-12-20T14:19:47;-5.40;99.90
12384;DHT22;6256;63.808;20.336;2023-12-20T14:22:13;-5.40;99.90
12384;DHT22;6256;63.808;20.336;2023-12-20T14:24:42;-5.50;99.90
12384;DHT22;6256;63.808;20.336;2023-12-20T14:27:08;-5.50;99.90
12384;DHT22;6256;63.808;20.336;2023-12-20T14:29:35;-5.50;99.90
12384;DHT22;6256;63.808;20.336;2023-12-20T14:32:01;-5.50;99.90
12384;DHT22;6256;63.808;20.336;2023-12-20T14:34:29;-5.50;99.90
12384;DHT22;6256;63.808;20.336;2023-12-20T14:36:55;-5.50;99.90
12384;DHT22;6256;63.808;20.336;2023-12-20T14:39:21;-5.50;99.90
12384;DHT22;6256;63.808;20.336;2023-12-20T14:41:46;-5.50;99.90
12384;DHT22;6256;63.808;20.336;2023-12-20T14:44:12;-5.60;99.90
12384;DHT22;6256;63.808;20.336;2023-12-20T14:46:38;-5.70;99.90
12384;DHT22;6256;63.808;20.336;2023-12-20T14:49:05;-5.70;99.90
12384;DHT22;6256;63.808;20.336;2023-12-20T14:51:30;-5.80;99.90
12384;DHT22;6256;63.808;20.336;2023-12-20T14:53:56;-5.80;99.90
12384;DHT22;6256;63.808;20.336;2023-12-20T14:56:23;-5.80;99.90
12384;DHT22;6256;63.808;20.336;2023-12-20T14:58:51;-5.90;99.90
12384;DHT22;6256;63.808;20.336;2023-12-20T15:01:17;-5.90;99.90
12384;DHT22;6256;63.808;20.336;2023-12-20T15:03:47;-5.90;99.90
12384;DHT22;6256;63.808;20.336;2023-12-20T15:06:13;-6.00;99.90
12384;DHT22;6256;63.808;20.336;2023-12-20T15:08:39;-6.10;99.90
12384;DHT22;6256;63.808;20.336;2023-12-20T15:11:04;-6.10;99.90
12384;DHT22;6256;63.808;20.336;2023-12-20T15:13:31;-6.10;99.90
12384;DHT22;6256;63.808;20.336;2023-12-20T15:15:57;-6.20;99.90
12384;DHT22;6256;63.808;20.336;2023-12-20T15:18:22;-6.20;99.90
12384;DHT22;6256;63.808;20.336;2023-12-20T15:20:48;-6.20;99.90
12384;DHT22;6256;63.808;20.336;2023-12-20T15:23:14;-6.20;99.90
12384;DHT22;6256;63.808;20.336;2023-12-20T15:25:40;-6.20;99.90
12384;DHT22;6256;63.808;20.336;2023-12-20T15:28:06;-6.30;99.90
12384;DHT22;6256;63.808;20.336;2023-12-20T15:30:32;-6.30;99.90
12384;DHT22;6256;63.808;20.336;2023-12-20T15:32:58;-6.30;99.90
12384;DHT22;6256;63.808;20.336;2023-12-20T15:35:23;-6.30;99.90
12384;DHT22;6256;63.808;20.336;2023-12-20T15:37:49;-6.40;99.90
12384;DHT22;6256;63.808;20.336;2023-12-20T15:40:16;-6.50;99.90
12384;DHT22;6256;63.808;20.336;2023-12-20T15:42:44;-6.60;99.90
12384;DHT22;6256;63.808;20.336;2023-12-20T15:45:10;-6.60;99.90